createdAt,value
2023-01-13T00:01:26.328Z,8.95
2023-01-13T00:03:53.879Z,9.73
2023-01-13T00:06:25.814Z,9.48
2023-01-13T00:08:54.037Z,8.68
2023-01-13T00:11:22.218Z,9.45
2023-01-13T00:13:49.464Z,9.00
2023-01-13T00:16:18.220Z,9.02
2023-01-13T00:18:46.522Z,8.93
2023-01-13T00:21:15.064Z,8.57
2023-01-13T00:23:43.458Z,8.82
2023-01-13T00:26:16.122Z,9.10
2023-01-13T00:28:43.605Z,8.82
2023-01-13T00:31:12.540Z,8.43
2023-01-13T00:33:40.216Z,8.48
2023-01-13T00:36:09.161Z,8.30
2023-01-13T00:38:37.797Z,8.93
2023-01-13T00:41:07.969Z,8.43
2023-01-13T00:43:36.773Z,8.55
2023-01-13T00:46:06.096Z,8.50
2023-01-13T00:48:34.223Z,8.52
2023-01-13T00:51:06.461Z,8.30
2023-01-13T00:53:39.438Z,8.47
2023-01-13T00:56:19.991Z,8.55
2023-01-13T00:58:52.201Z,8.57
2023-01-13T01:01:22.370Z,7.47
2023-01-13T01:03:54.641Z,8.13
2023-01-13T01:06:24.890Z,7.90
2023-01-13T01:08:53.896Z,7.95
2023-01-13T01:11:24.232Z,7.90
2023-01-13T01:13:52.796Z,7.90
2023-01-13T01:16:21.788Z,8.57
2023-01-13T01:18:50.952Z,7.35
2023-01-13T01:21:19.070Z,7.68
2023-01-13T01:23:46.413Z,8.43
2023-01-13T01:26:15.531Z,8.07
2023-01-13T01:28:43.542Z,7.88
2023-01-13T01:31:17.904Z,8.00
2023-01-13T01:33:48.794Z,8.07
2023-01-13T01:36:19.808Z,7.95
2023-01-13T01:38:47.687Z,7.80
2023-01-13T01:41:17.727Z,6.60
2023-01-13T01:44:08.485Z,8.23
2023-01-13T01:46:44.307Z,8.10
2023-01-13T01:49:23.677Z,7.80
2023-01-13T01:51:57.729Z,7.85
2023-01-13T01:54:38.876Z,7.82
2023-01-13T01:57:11.399Z,7.28
2023-01-13T01:59:39.456Z,7.70
2023-01-13T02:02:08.199Z,7.68
2023-01-13T02:04:40.653Z,8.18
2023-01-13T02:07:08.223Z,7.63
2023-01-13T02:09:36.796Z,6.80
2023-01-13T02:12:22.963Z,7.82
2023-01-13T02:14:50.245Z,7.88
2023-01-13T02:17:32.384Z,8.38
2023-01-13T02:20:34.015Z,6.80
2023-01-13T02:23:48.932Z,7.65
2023-01-13T02:26:16.105Z,6.95
2023-01-13T02:29:37.059Z,7.55
2023-01-13T02:32:20.461Z,6.90
2023-01-13T02:37:29.499Z,7.70
2023-01-13T02:40:01.593Z,7.70
2023-01-13T02:42:57.187Z,6.97
2023-01-13T02:45:28.347Z,6.80
2023-01-13T02:47:58.550Z,6.70
2023-01-13T02:50:32.530Z,7.15
2023-01-13T02:53:05.955Z,6.78
2023-01-13T02:55:46.909Z,7.40
2023-01-13T02:58:20.065Z,6.80
2023-01-13T03:00:49.178Z,7.22
2023-01-13T03:03:16.609Z,7.25
2023-01-13T03:05:46.429Z,7.53
2023-01-13T03:08:21.535Z,7.00
2023-01-13T03:10:54.274Z,6.50
2023-01-13T03:13:27.532Z,7.03
2023-01-13T03:16:08.405Z,7.10
2023-01-13T03:18:45.517Z,6.85
2023-01-13T03:21:34.428Z,6.53
2023-01-13T03:24:02.290Z,6.32
2023-01-13T03:26:55.248Z,6.80
2023-01-13T03:29:36.261Z,6.78
2023-01-13T03:32:15.319Z,7.07
2023-01-13T03:34:50.347Z,6.75
2023-01-13T03:37:22.335Z,6.20
2023-01-13T03:39:57.472Z,6.38
2023-01-13T03:42:28.651Z,6.70
2023-01-13T03:45:10.144Z,6.68
2023-01-13T03:47:55.754Z,6.65
2023-01-13T03:50:28.461Z,6.55
2023-01-13T03:53:01.187Z,6.63
2023-01-13T03:55:36.574Z,6.20
2023-01-13T03:58:14.456Z,5.95
2023-01-13T04:00:55.163Z,6.60
2023-01-13T04:03:42.438Z,5.43
2023-01-13T04:06:16.998Z,6.72
2023-01-13T04:08:52.845Z,5.68
2023-01-13T04:11:30.811Z,6.20
2023-01-13T04:14:00.111Z,6.10
2023-01-13T04:16:27.622Z,6.40
2023-01-13T04:18:55.156Z,6.50
2023-01-13T04:21:22.619Z,5.95
2023-01-13T04:23:51.526Z,5.82
2023-01-13T04:26:19.769Z,6.15
2023-01-13T04:28:47.101Z,6.38
2023-01-13T04:31:14.745Z,6.28
2023-01-13T04:33:42.108Z,5.90
2023-01-13T04:36:09.523Z,6.13
2023-01-13T04:38:36.857Z,6.38
2023-01-13T04:41:04.262Z,6.38
2023-01-13T04:43:31.539Z,6.22
2023-01-13T04:45:58.814Z,6.13
2023-01-13T04:48:26.047Z,6.38
2023-01-13T04:50:53.339Z,5.78
2023-01-13T04:53:20.618Z,5.80
2023-01-13T04:55:49.772Z,6.07
2023-01-13T04:58:17.068Z,5.50
2023-01-13T05:00:44.395Z,5.78
2023-01-13T05:03:11.687Z,6.25
2023-01-13T05:05:38.999Z,5.85
2023-01-13T05:08:06.411Z,5.50
2023-01-13T05:10:33.591Z,5.93
2023-01-13T05:13:19.637Z,5.93
2023-01-13T05:16:06.814Z,6.22
2023-01-13T05:18:34.446Z,5.70
2023-01-13T05:21:01.746Z,5.78
2023-01-13T05:23:47.860Z,5.68
2023-01-13T05:26:15.091Z,6.20
2023-01-13T05:28:42.277Z,5.35
2023-01-13T05:31:09.610Z,5.13
2023-01-13T05:33:36.944Z,5.47
2023-01-13T05:36:05.792Z,5.72
2023-01-13T05:38:33.110Z,5.93
2023-01-13T05:41:19.166Z,5.82
2023-01-13T05:43:46.618Z,6.28
2023-01-13T05:46:14.969Z,5.90
2023-01-13T05:48:42.991Z,5.55
2023-01-13T05:51:11.801Z,6.68
2023-01-13T05:53:40.987Z,5.38
2023-01-13T05:56:09.349Z,6.10
2023-01-13T05:58:37.129Z,5.10
2023-01-13T06:01:07.231Z,5.90
2023-01-13T06:03:35.128Z,5.70
2023-01-13T06:06:04.171Z,5.53
2023-01-13T06:08:32.375Z,5.30
2023-01-13T06:10:59.643Z,5.07
2023-01-13T06:13:27.062Z,5.57
2023-01-13T06:15:59.311Z,5.38
2023-01-13T06:18:28.059Z,5.40
2023-01-13T06:20:55.751Z,5.85
2023-01-13T06:23:23.406Z,5.07
2023-01-13T06:26:04.403Z,5.63
2023-01-13T06:28:33.331Z,5.30
2023-01-13T06:31:05.998Z,5.03
2023-01-13T06:33:43.955Z,5.85
2023-01-13T06:36:18.809Z,5.70
2023-01-13T06:38:49.122Z,5.80
2023-01-13T06:41:17.301Z,5.63
2023-01-13T06:43:44.589Z,4.90
2023-01-13T06:46:11.897Z,5.45
2023-01-13T06:48:39.159Z,5.57
2023-01-13T06:51:06.481Z,6.00
2023-01-13T06:53:34.738Z,6.05
2023-01-13T06:56:01.996Z,5.25
2023-01-13T06:58:29.321Z,5.97
2023-01-13T07:01:00.284Z,6.15
2023-01-13T07:03:27.681Z,5.80
2023-01-13T07:05:56.196Z,6.07
2023-01-13T07:08:24.017Z,5.80
2023-01-13T07:10:51.590Z,5.95
2023-01-13T07:13:37.238Z,5.53
2023-01-13T07:16:06.689Z,6.10
2023-01-13T07:18:35.640Z,5.28
2023-01-13T07:21:08.216Z,5.45
2023-01-13T07:23:39.544Z,5.18
2023-01-13T07:26:08.846Z,5.55
2023-01-13T07:28:36.745Z,6.10
2023-01-13T07:31:04.499Z,5.80
2023-01-13T07:33:34.600Z,5.47
2023-01-13T07:36:05.076Z,5.90
2023-01-13T07:38:34.047Z,5.70
2023-01-13T07:41:22.165Z,5.93
2023-01-13T07:43:50.599Z,5.03
2023-01-13T07:46:18.972Z,6.03
2023-01-13T07:48:47.231Z,5.28
2023-01-13T07:51:14.563Z,5.20
2023-01-13T07:53:41.866Z,5.35
2023-01-13T07:56:09.424Z,5.40
2023-01-13T07:58:37.818Z,5.15
2023-01-13T08:01:13.058Z,5.47
2023-01-13T08:03:41.096Z,5.47
2023-01-13T08:06:09.825Z,5.20
2023-01-13T08:08:38.025Z,5.63
2023-01-13T08:11:07.687Z,5.47
2023-01-13T08:13:34.947Z,5.72
2023-01-13T08:16:05.207Z,5.68
2023-01-13T08:18:33.812Z,5.65
2023-01-13T08:21:03.533Z,5.43
2023-01-13T08:23:30.943Z,5.30
2023-01-13T08:26:03.197Z,5.38
2023-01-13T08:28:31.273Z,5.73
2023-01-13T08:31:07.749Z,5.78
2023-01-13T08:33:35.551Z,6.63
2023-01-13T08:36:07.644Z,8.25
2023-01-13T08:38:35.936Z,8.45
2023-01-13T08:41:36.833Z,9.52
2023-01-13T08:44:05.263Z,10.02
2023-01-13T08:46:32.653Z,9.82
2023-01-13T08:48:59.975Z,10.95
2023-01-13T08:51:27.649Z,10.75
2023-01-13T08:53:54.911Z,12.82
2023-01-13T08:56:23.381Z,9.65
2023-01-13T08:58:50.617Z,9.45
2023-01-13T09:01:21.866Z,7.97
2023-01-13T09:03:49.241Z,6.60
2023-01-13T09:06:17.139Z,6.72
2023-01-13T09:08:45.122Z,7.07
2023-01-13T09:11:38.096Z,6.57
2023-01-13T09:14:05.537Z,7.30
2023-01-13T09:16:32.883Z,6.30
2023-01-13T09:19:00.111Z,6.95
2023-01-13T09:21:27.405Z,5.70
2023-01-13T09:23:54.673Z,6.55
2023-01-13T09:26:21.927Z,6.18
2023-01-13T09:28:49.332Z,6.28
2023-01-13T09:31:16.751Z,5.68
2023-01-13T09:34:02.422Z,5.85
2023-01-13T09:36:29.780Z,6.32
2023-01-13T09:38:57.151Z,5.85
2023-01-13T09:41:45.953Z,5.63
2023-01-13T09:44:59.563Z,5.28
2023-01-13T09:47:34.046Z,5.63
2023-01-13T09:50:21.965Z,5.85
2023-01-13T09:52:49.539Z,5.60
2023-01-13T09:55:22.845Z,5.97
2023-01-13T09:57:50.351Z,6.35
2023-01-13T10:00:37.978Z,5.75
2023-01-13T10:03:23.784Z,6.03
2023-01-13T10:05:56.600Z,5.78
2023-01-13T10:08:28.317Z,6.18
2023-01-13T10:10:59.490Z,5.70
2023-01-13T10:13:30.713Z,5.72
2023-01-13T10:16:19.480Z,4.57
2023-01-13T10:18:58.988Z,5.32
2023-01-13T10:21:32.164Z,6.05
2023-01-13T10:26:56.044Z,5.47
2023-01-13T10:29:28.737Z,6.18
2023-01-13T10:31:57.758Z,5.78
2023-01-13T10:34:26.179Z,6.05
2023-01-13T10:37:03.100Z,5.80
2023-01-13T10:39:40.890Z,5.40
2023-01-13T10:42:17.378Z,6.35
2023-01-13T10:45:19.243Z,5.32
2023-01-13T10:48:06.351Z,6.00
2023-01-13T10:50:36.284Z,5.35
2023-01-13T10:53:18.478Z,5.32
2023-01-13T10:55:59.882Z,6.25
2023-01-13T10:58:28.226Z,5.63
2023-01-13T11:01:01.127Z,6.07
2023-01-13T11:03:41.551Z,5.15
2023-01-13T11:06:19.105Z,6.00
2023-01-13T11:08:49.672Z,6.18
2023-01-13T11:11:47.470Z,6.20
2023-01-13T11:14:33.141Z,5.80
2023-01-13T11:17:05.700Z,5.72
2023-01-13T11:19:37.894Z,5.97
2023-01-13T11:22:37.566Z,5.68
2023-01-13T11:25:10.520Z,6.15
2023-01-13T11:27:58.840Z,6.03
2023-01-13T11:30:50.892Z,6.35
2023-01-13T11:34:03.578Z,5.88
2023-01-13T11:36:53.998Z,6.53
2023-01-13T11:39:49.045Z,6.78
2023-01-13T11:42:32.030Z,6.07
2023-01-13T11:45:17.382Z,6.47
2023-01-13T11:47:52.608Z,13.27
2023-01-13T11:50:34.238Z,9.95
2023-01-13T11:53:22.790Z,8.30
2023-01-13T11:55:58.939Z,7.40
2023-01-13T11:58:59.129Z,6.95
2023-01-13T12:01:54.926Z,6.97
2023-01-13T12:04:33.374Z,6.60
2023-01-13T12:07:16.443Z,6.80
2023-01-13T12:10:04.505Z,6.22
2023-01-13T12:12:37.176Z,6.47
2023-01-13T12:15:22.500Z,6.20
2023-01-13T12:18:14.728Z,6.78
2023-01-13T12:21:04.184Z,6.50
2023-01-13T12:24:13.789Z,6.97
2023-01-13T12:26:46.376Z,6.53
2023-01-13T12:29:19.708Z,5.85
2023-01-13T12:31:49.290Z,6.18
2023-01-13T12:34:42.231Z,6.18
2023-01-13T12:37:21.029Z,6.57
2023-01-13T12:39:54.154Z,5.72
2023-01-13T12:45:13.404Z,6.07
2023-01-13T12:47:48.361Z,5.82
2023-01-13T12:50:24.878Z,6.28
2023-01-13T12:53:19.436Z,6.20
2023-01-13T12:55:52.119Z,6.28
2023-01-13T12:58:28.176Z,6.53
2023-01-13T13:01:13.095Z,6.50
2023-01-13T13:03:41.547Z,5.93
2023-01-13T13:06:21.934Z,6.82
2023-01-13T13:09:04.500Z,6.45
2023-01-13T13:11:57.937Z,6.93
2023-01-13T13:14:37.370Z,6.38
2023-01-13T13:17:25.520Z,7.32
2023-01-13T13:19:52.847Z,7.05
2023-01-13T13:22:29.824Z,6.70
2023-01-13T13:24:59.667Z,6.32
2023-01-13T13:27:45.456Z,6.30
2023-01-13T13:30:36.428Z,6.57
2023-01-13T13:33:39.232Z,6.32
2023-01-13T13:36:30.215Z,7.57
2023-01-13T13:39:22.017Z,6.53
2023-01-13T13:42:12.595Z,7.50
2023-01-13T13:45:01.441Z,6.88
2023-01-13T13:47:36.564Z,6.85
2023-01-13T13:50:20.794Z,6.55
2023-01-13T13:53:09.305Z,6.53
2023-01-13T13:55:36.768Z,6.38
2023-01-13T13:58:04.210Z,6.38
2023-01-13T14:00:35.528Z,6.90
2023-01-13T14:03:28.918Z,7.80
2023-01-13T14:06:00.840Z,7.05
2023-01-13T14:08:30.847Z,7.00
2023-01-13T14:10:58.171Z,6.72
2023-01-13T14:13:30.744Z,6.65
2023-01-13T14:16:00.871Z,6.65
2023-01-13T14:18:30.782Z,6.25
2023-01-13T14:21:13.923Z,7.00
2023-01-13T14:23:52.080Z,6.60
2023-01-13T14:26:27.693Z,6.47
2023-01-13T14:28:56.434Z,6.93
2023-01-13T14:31:24.704Z,6.43
2023-01-13T14:33:54.963Z,6.80
2023-01-13T14:36:36.714Z,6.25
2023-01-13T14:39:03.997Z,7.30
2023-01-13T14:41:47.014Z,6.43
2023-01-13T14:44:28.110Z,6.38
2023-01-13T14:46:59.065Z,5.85
2023-01-13T14:49:31.891Z,5.78
2023-01-13T14:52:09.820Z,5.80
2023-01-13T14:54:52.080Z,6.80
2023-01-13T14:57:31.938Z,6.40
2023-01-13T15:00:13.493Z,6.45
2023-01-13T15:02:59.065Z,6.80
2023-01-13T15:05:26.384Z,6.93
2023-01-13T15:08:00.059Z,6.57
2023-01-13T15:10:38.938Z,6.75
2023-01-13T15:13:07.860Z,7.05
2023-01-13T15:15:37.843Z,6.07
2023-01-13T15:18:13.946Z,6.28
2023-01-13T15:20:42.289Z,6.38
2023-01-13T15:23:10.050Z,6.30
2023-01-13T15:25:43.009Z,6.70
2023-01-13T15:28:18.997Z,5.47
2023-01-13T15:30:47.328Z,6.30
2023-01-13T15:33:15.779Z,6.57
2023-01-13T15:35:46.927Z,6.20
2023-01-13T15:38:23.762Z,6.45
2023-01-13T15:40:52.713Z,6.32
2023-01-13T15:43:40.675Z,5.82
2023-01-13T15:46:38.989Z,6.72
2023-01-13T15:49:15.034Z,6.20
2023-01-13T15:51:44.215Z,6.90
2023-01-13T15:54:12.057Z,6.93
2023-01-13T15:56:39.606Z,6.85
2023-01-13T15:59:15.947Z,6.70
2023-01-13T16:01:43.966Z,6.97
2023-01-13T16:04:11.201Z,6.38
2023-01-13T16:06:38.526Z,6.10
2023-01-13T16:09:06.255Z,6.30
2023-01-13T16:11:33.496Z,6.43
2023-01-13T16:14:00.804Z,6.65
2023-01-13T16:16:28.827Z,6.97
2023-01-13T16:18:56.509Z,6.10
2023-01-13T16:21:24.587Z,6.78
2023-01-13T16:23:52.291Z,6.68
2023-01-13T16:26:25.774Z,6.63
2023-01-13T16:28:56.124Z,7.35
2023-01-13T16:31:32.014Z,6.78
2023-01-13T16:34:01.387Z,7.28
2023-01-13T16:36:30.386Z,6.68
2023-01-13T16:38:57.702Z,6.55
2023-01-13T16:41:25.261Z,7.28
2023-01-13T16:43:53.393Z,6.45
2023-01-13T16:46:26.282Z,6.72
2023-01-13T16:48:57.168Z,6.90
2023-01-13T16:51:24.781Z,7.20
2023-01-13T16:53:52.138Z,6.72
2023-01-13T16:56:28.271Z,6.45
2023-01-13T16:58:57.758Z,6.57
2023-01-13T17:01:30.826Z,7.65
2023-01-13T17:06:35.556Z,6.38
2023-01-13T17:09:17.360Z,6.43
2023-01-13T17:11:45.026Z,5.97
2023-01-13T17:14:19.315Z,7.55
2023-01-13T17:16:47.828Z,6.63
2023-01-13T17:19:15.501Z,7.03
2023-01-13T17:21:42.845Z,7.10
2023-01-13T17:24:12.283Z,7.43
2023-01-13T17:26:47.524Z,7.25
2023-01-13T17:29:21.863Z,7.25
2023-01-13T17:31:50.479Z,7.28
2023-01-13T17:34:18.709Z,7.25
2023-01-13T17:36:46.139Z,7.25
2023-01-13T17:39:16.612Z,6.38
2023-01-13T17:41:44.667Z,6.72
2023-01-13T17:44:17.144Z,7.28
2023-01-13T17:46:45.390Z,6.95
2023-01-13T17:49:13.761Z,7.22
2023-01-13T17:51:41.176Z,7.63
2023-01-13T17:54:12.363Z,7.45
2023-01-13T17:56:43.203Z,6.65
2023-01-13T17:59:15.264Z,7.72
2023-01-13T18:01:42.797Z,7.05
2023-01-13T18:04:16.553Z,7.35
2023-01-13T18:06:44.414Z,7.32
2023-01-13T18:09:12.436Z,7.90
2023-01-13T18:11:39.793Z,8.07
2023-01-13T18:14:07.165Z,7.63
2023-01-13T18:16:34.856Z,7.90
2023-01-13T18:19:20.935Z,8.60
2023-01-13T18:22:06.923Z,7.93
2023-01-13T18:24:53.023Z,7.82
2023-01-13T18:27:27.348Z,9.60
2023-01-13T18:29:58.325Z,8.65
2023-01-13T18:32:31.921Z,8.55
2023-01-13T18:35:06.114Z,7.50
2023-01-13T18:37:38.832Z,9.40
2023-01-13T18:40:09.308Z,8.82
2023-01-13T18:42:53.736Z,7.88
2023-01-13T18:45:27.145Z,8.73
2023-01-13T18:47:58.769Z,8.65
2023-01-13T18:50:27.135Z,7.70
2023-01-13T18:52:54.570Z,8.77
2023-01-13T18:55:22.128Z,8.63
2023-01-13T18:57:54.277Z,8.50
2023-01-13T19:00:23.036Z,7.97
2023-01-13T19:05:34.948Z,10.52
2023-01-13T19:08:02.537Z,10.27
2023-01-13T19:10:32.345Z,10.40
2023-01-13T19:13:01.391Z,10.30
2023-01-13T19:15:28.781Z,10.57
2023-01-13T19:17:56.231Z,11.95
2023-01-13T19:20:23.514Z,12.23
2023-01-13T19:22:54.289Z,12.73
2023-01-13T19:25:21.884Z,13.15
2023-01-13T19:27:49.239Z,13.40
2023-01-13T19:30:17.533Z,16.13
2023-01-13T19:32:44.826Z,15.45
2023-01-13T19:35:14.101Z,16.00
2023-01-13T19:37:43.683Z,15.80
2023-01-13T19:40:13.880Z,16.88
2023-01-13T19:43:01.935Z,17.05
2023-01-13T19:45:32.046Z,16.98
2023-01-13T19:48:05.061Z,17.42
2023-01-13T19:50:36.561Z,16.70
2023-01-13T19:53:04.108Z,16.10
2023-01-13T19:55:32.105Z,16.50
2023-01-13T19:57:59.439Z,15.63
2023-01-13T20:00:27.004Z,14.60
2023-01-13T20:02:56.687Z,14.90
2023-01-13T20:05:26.023Z,15.55
2023-01-13T20:07:53.969Z,14.40
2023-01-13T20:10:23.200Z,14.88
2023-01-13T20:12:50.502Z,15.00
2023-01-13T20:15:17.807Z,14.98
2023-01-13T20:17:45.120Z,15.05
2023-01-13T20:20:13.657Z,15.68
2023-01-13T20:22:41.483Z,15.30
2023-01-13T20:25:09.423Z,15.07
2023-01-13T20:27:37.037Z,14.85
2023-01-13T20:30:09.539Z,14.70
2023-01-13T20:32:37.198Z,13.80
2023-01-13T20:35:05.481Z,15.75
2023-01-13T20:37:33.645Z,14.57
2023-01-13T20:40:01.841Z,13.43
2023-01-13T20:42:34.251Z,13.80
2023-01-13T20:45:01.721Z,13.48
2023-01-13T20:47:30.179Z,14.65
2023-01-13T20:49:57.621Z,13.52
2023-01-13T20:52:25.112Z,13.48
2023-01-13T20:54:52.356Z,13.10
2023-01-13T20:57:19.741Z,12.27
2023-01-13T20:59:47.164Z,14.45
2023-01-13T21:02:16.155Z,13.43
2023-01-13T21:04:44.063Z,12.35
2023-01-13T21:07:11.463Z,13.15
2023-01-13T21:09:38.686Z,12.70
2023-01-13T21:12:25.226Z,12.88
2023-01-13T21:15:10.827Z,13.68
2023-01-13T21:17:57.258Z,12.43
2023-01-13T21:20:24.564Z,12.55
2023-01-13T21:22:51.902Z,13.70
2023-01-13T21:25:19.986Z,11.93
2023-01-13T21:27:48.101Z,12.73
2023-01-13T21:30:17.271Z,12.20
2023-01-13T21:32:45.648Z,12.05
2023-01-13T21:35:14.249Z,12.55
2023-01-13T21:37:44.248Z,12.73
2023-01-13T21:40:13.766Z,11.70
2023-01-13T21:42:59.670Z,12.18
2023-01-13T21:45:45.961Z,12.13
2023-01-13T21:48:13.233Z,13.15
2023-01-13T21:50:40.945Z,12.32
2023-01-13T21:53:08.373Z,12.32
2023-01-13T21:55:36.915Z,12.00
2023-01-13T21:58:13.417Z,11.93
2023-01-13T22:00:42.640Z,12.43
2023-01-13T22:03:12.122Z,12.20
2023-01-13T22:05:40.142Z,11.95
2023-01-13T22:08:07.548Z,12.48
2023-01-13T22:10:35.219Z,11.63
2023-01-13T22:13:23.584Z,11.75
2023-01-13T22:15:51.002Z,12.23
2023-01-13T22:18:18.479Z,13.35
2023-01-13T22:20:46.031Z,11.68
2023-01-13T22:23:13.685Z,11.32
2023-01-13T22:25:40.959Z,12.23
2023-01-13T22:28:09.428Z,12.30
2023-01-13T22:30:36.910Z,10.45
2023-01-13T22:33:04.130Z,11.68
2023-01-13T22:35:31.403Z,11.05
2023-01-13T22:38:00.914Z,11.65
2023-01-13T22:40:28.186Z,10.57
2023-01-13T22:42:55.469Z,11.82
2023-01-13T22:45:22.852Z,12.18
2023-01-13T22:47:50.159Z,12.35
2023-01-13T22:50:20.757Z,11.57
2023-01-13T22:52:48.152Z,11.75
2023-01-13T22:55:15.568Z,11.80
2023-01-13T22:57:47.971Z,11.07
2023-01-13T23:00:19.065Z,12.45
2023-01-13T23:02:46.912Z,11.43
2023-01-13T23:05:14.291Z,11.10
2023-01-13T23:07:41.585Z,11.02
2023-01-13T23:10:09.480Z,11.43
2023-01-13T23:12:37.015Z,10.82
2023-01-13T23:15:05.314Z,12.30
2023-01-13T23:17:32.722Z,11.30
2023-01-13T23:19:59.953Z,11.73
2023-01-13T23:22:27.359Z,11.63
2023-01-13T23:24:54.661Z,12.45
2023-01-13T23:27:21.932Z,11.30
2023-01-13T23:29:49.427Z,11.98
2023-01-13T23:32:16.651Z,11.48
2023-01-13T23:34:43.855Z,10.40
2023-01-13T23:37:11.101Z,11.93
2023-01-13T23:39:38.349Z,12.32
2023-01-13T23:42:05.643Z,10.52
2023-01-13T23:44:32.943Z,11.93
2023-01-13T23:47:00.253Z,10.73
2023-01-13T23:49:27.557Z,11.25
2023-01-13T23:51:55.023Z,11.35
2023-01-13T23:54:22.472Z,10.48
2023-01-13T23:56:52.497Z,11.43
2023-01-13T23:59:20.917Z,10.70
